Time;durP1;ratioP1;P1;durP2;ratioP2;P2;SDS_P1;SDS_P2;PMS_P1;PMS_P2;Temp;Humidity;BMP_temperature;BMP_pressure;BME280_temperature;BME280_humidity;BME280_pressure;Samples;Min_cycle;Max_cycle;Signal;HPM_P1;HPM_P2
2021/12/21 08:24:20;;;;;;;10.88;6.57;;;;;;;;;;4973583;23;20437;-68
2021/12/21 08:26:46;;;;;;;17.08;13.13;;;;;;;;;;4973108;28;20404;-63
2021/12/21 08:29:12;;;;;;;19.27;15.48;;;;;;;;;;4974384;28;20380;-63
2021/12/21 08:31:38;;;;;;;18.10;13.50;;;;;;;;;;4952651;28;20411;-57
2021/12/21 08:34:10;;;;;;;16.33;12.13;;;;;;;;;;4946369;28;20493;-54
2021/12/21 08:36:37;;;;;;;16.17;11.95;;;;;;;;;;4950803;28;20392;-60
2021/12/21 08:39:05;;;;;;;15.90;12.05;;;;;;;;;;4964728;28;20932;-63
2021/12/21 08:41:33;;;;;;;14.60;10.98;;;;;;;;;;4957880;28;20902;-67
2021/12/21 08:43:59;;;;;;;16.92;11.35;;;;;;;;;;4970701;28;20813;-61
2021/12/21 08:46:25;;;;;;;13.30;10.05;;;;;;;;;;4964370;28;20386;-60
2021/12/21 08:48:51;;;;;;;13.75;10.18;;;;;;;;;;4963260;28;20368;-60
2021/12/21 08:51:18;;;;;;;12.68;9.80;;;;;;;;;;4965659;28;20914;-54
2021/12/21 08:53:44;;;;;;;12.00;9.30;;;;;;;;;;4969022;28;20380;-66
2021/12/21 08:56:10;;;;;;;12.60;9.70;;;;;;;;;;4966427;28;20395;-67
2021/12/21 08:58:36;;;;;;;12.60;9.65;;;;;;;;;;4949190;28;20398;-64
2021/12/21 09:01:03;;;;;;;12.00;9.00;;;;;;;;;;4969977;28;20468;-63
2021/12/21 09:03:29;;;;;;;10.27;8.43;;;;;;;;;;4953399;28;20385;-62
2021/12/21 09:05:55;;;;;;;11.43;8.77;;;;;;;;;;4954259;28;20400;-63
2021/12/21 09:08:21;;;;;;;10.10;8.35;;;;;;;;;;4953068;28;20432;-65
2021/12/21 09:10:47;;;;;;;10.77;8.10;;;;;;;;;;4970094;28;20434;-62
2021/12/21 09:13:13;;;;;;;10.57;8.77;;;;;;;;;;4955427;28;20392;-67
2021/12/21 09:15:39;;;;;;;10.80;8.27;;;;;;;;;;4970511;28;20391;-59
2021/12/21 09:18:06;;;;;;;10.57;7.97;;;;;;;;;;4972905;28;20919;-58
2021/12/21 09:20:33;;;;;;;9.82;7.72;;;;;;;;;;4972722;28;20386;-59
2021/12/21 09:22:59;;;;;;;10.23;7.82;;;;;;;;;;4971983;28;20408;-57
2021/12/21 09:25:26;;;;;;;10.20;7.80;;;;;;;;;;4972390;28;20415;-64
2021/12/21 09:27:53;;;;;;;9.60;7.13;;;;;;;;;;4972802;28;20927;-62
2021/12/21 09:30:20;;;;;;;9.07;7.30;;;;;;;;;;4976673;28;20424;-62
2021/12/21 09:32:46;;;;;;;9.05;7.07;;;;;;;;;;4964715;28;20392;-69
2021/12/21 09:35:13;;;;;;;8.50;6.60;;;;;;;;;;4972338;28;20380;-51
2021/12/21 09:37:39;;;;;;;8.23;6.43;;;;;;;;;;4968659;28;20385;-55
2021/12/21 09:40:09;;;;;;;7.97;6.38;;;;;;;;;;4947380;28;20510;-67
2021/12/21 09:42:36;;;;;;;8.90;6.70;;;;;;;;;;4972666;28;20377;-64
2021/12/21 09:45:03;;;;;;;8.35;6.68;;;;;;;;;;4972043;28;20435;-64
2021/12/21 09:47:29;;;;;;;9.55;7.38;;;;;;;;;;4954960;28;20390;-62
2021/12/21 09:49:56;;;;;;;10.68;7.57;;;;;;;;;;4962454;28;20788;-63
2021/12/21 09:52:23;;;;;;;8.52;7.10;;;;;;;;;;4972143;28;20388;-59
2021/12/21 09:54:50;;;;;;;10.63;7.70;;;;;;;;;;4954648;28;20464;-60
2021/12/21 09:57:17;;;;;;;9.93;7.70;;;;;;;;;;4972239;28;20391;-62
2021/12/21 09:59:44;;;;;;;11.05;8.20;;;;;;;;;;4972039;28;20900;-65
2021/12/21 10:02:11;;;;;;;9.98;7.90;;;;;;;;;;4954824;28;20900;-65
2021/12/21 10:04:47;;;;;;;10.00;7.50;;;;;;;;;;4971930;28;20377;-61
2021/12/21 10:07:15;;;;;;;10.55;8.13;;;;;;;;;;4972230;28;20389;-61
2021/12/21 10:09:46;;;;;;;10.45;8.13;;;;;;;;;;4955026;28;20507;-59
2021/12/21 10:12:26;;;;;;;10.25;7.43;;;;;;;;;;4972123;28;20387;-61
2021/12/21 10:15:00;;;;;;;10.65;7.63;;;;;;;;;;4972206;28;20474;-68
2021/12/21 10:17:27;;;;;;;10.07;7.13;;;;;;;;;;4954531;28;20392;-62
2021/12/21 10:19:53;;;;;;;9.80;7.28;;;;;;;;;;4970143;28;20899;-57
2021/12/21 10:22:19;;;;;;;10.02;6.95;;;;;;;;;;4961479;28;20392;-51
2021/12/21 10:24:47;;;;;;;11.10;7.13;;;;;;;;;;4971999;28;20444;-69
2021/12/21 10:27:13;;;;;;;9.73;6.97;;;;;;;;;;4971775;28;20864;-62
2021/12/21 10:29:54;;;;;;;9.25;6.75;;;;;;;;;;4956583;28;20410;-61
2021/12/21 10:32:25;;;;;;;9.65;7.20;;;;;;;;;;4971114;28;20535;-61
2021/12/21 10:35:03;;;;;;;8.93;6.55;;;;;;;;;;4971865;28;20441;-54
2021/12/21 10:37:31;;;;;;;9.00;6.55;;;;;;;;;;4954326;28;20388;-59
2021/12/21 10:40:09;;;;;;;9.90;7.03;;;;;;;;;;4969643;28;20395;-52
2021/12/21 10:42:49;;;;;;;9.57;6.53;;;;;;;;;;4971398;28;20392;-56
2021/12/21 10:45:19;;;;;;;8.40;6.35;;;;;;;;;;4971440;28;20748;-57
2021/12/21 10:47:50;;;;;;;8.40;6.30;;;;;;;;;;4950648;28;20419;-59
2021/12/21 10:50:16;;;;;;;8.00;6.05;;;;;;;;;;4974130;28;20499;-59
2021/12/21 10:52:45;;;;;;;8.50;6.20;;;;;;;;;;4957342;28;20385;-51
2021/12/21 10:55:11;;;;;;;9.23;6.30;;;;;;;;;;4955760;28;20874;-71
2021/12/21 10:57:37;;;;;;;8.00;6.00;;;;;;;;;;4974590;28;20384;-67
2021/12/21 11:00:07;;;;;;;8.00;5.78;;;;;;;;;;4975092;28;20376;-61
2021/12/21 11:02:35;;;;;;;7.25;5.70;;;;;;;;;;4952316;28;20396;-69
2021/12/21 11:05:03;;;;;;;7.40;5.60;;;;;;;;;;4956781;28;20915;-70
2021/12/21 11:09:56;;;;;;;7.53;5.28;;;;;;;;;;4974759;28;20467;-67
2021/12/21 11:12:24;;;;;;;8.32;5.47;;;;;;;;;;4957725;28;20983;-70
2021/12/21 11:14:54;;;;;;;6.35;4.82;;;;;;;;;;4974677;28;20376;-57
2021/12/21 11:17:22;;;;;;;6.45;5.00;;;;;;;;;;4974397;28;20408;-74
2021/12/21 11:19:50;;;;;;;7.85;5.22;;;;;;;;;;4974627;28;20427;-64
2021/12/21 11:22:17;;;;;;;5.60;4.72;;;;;;;;;;4957291;28;20776;-71
2021/12/21 11:24:44;;;;;;;7.38;4.97;;;;;;;;;;4957308;28;20396;-70
2021/12/21 11:27:11;;;;;;;6.55;4.90;;;;;;;;;;4975162;28;20390;-69
2021/12/21 11:29:39;;;;;;;6.80;4.80;;;;;;;;;;4961700;28;20410;-62
2021/12/21 11:32:06;;;;;;;5.68;4.60;;;;;;;;;;4956048;28;20404;-55
2021/12/21 11:34:35;;;;;;;5.63;4.53;;;;;;;;;;4974591;28;20455;-63
2021/12/21 11:37:20;;;;;;;8.15;5.43;;;;;;;;;;4956971;28;20388;-56
2021/12/21 11:39:47;;;;;;;8.52;6.70;;;;;;;;;;4967090;28;20455;-55
2021/12/21 11:42:35;;;;;;;10.02;7.45;;;;;;;;;;4967508;28;20436;-52
2021/12/21 11:45:07;;;;;;;9.43;7.45;;;;;;;;;;4950313;28;20404;-55
2021/12/21 11:47:41;;;;;;;11.57;7.67;;;;;;;;;;4954632;28;20396;-56
2021/12/21 11:50:09;;;;;;;11.05;8.27;;;;;;;;;;4945467;28;20503;-56
2021/12/21 11:52:55;;;;;;;9.98;7.78;;;;;;;;;;4964446;28;20867;-57
2021/12/21 11:55:23;;;;;;;9.25;7.65;;;;;;;;;;4941460;28;20382;-56
2021/12/21 11:57:53;;;;;;;11.20;7.70;;;;;;;;;;4963185;28;20433;-58
2021/12/21 12:00:23;;;;;;;9.13;6.97;;;;;;;;;;4955877;28;20380;-58
2021/12/21 12:02:50;;;;;;;10.85;7.70;;;;;;;;;;4963306;28;20477;-57
2021/12/21 12:05:19;;;;;;;11.23;7.90;;;;;;;;;;4974043;28;20372;-55
2021/12/21 12:07:58;;;;;;;10.10;7.57;;;;;;;;;;4961241;28;20377;-55
2021/12/21 12:10:24;;;;;;;11.02;8.80;;;;;;;;;;4956996;28;20425;-56
2021/12/21 12:12:53;;;;;;;10.82;7.93;;;;;;;;;;4962186;28;20407;-56
2021/12/21 12:15:19;;;;;;;10.45;8.38;;;;;;;;;;4956382;28;20467;-55
2021/12/21 12:17:49;;;;;;;9.80;7.60;;;;;;;;;;4973471;28;20899;-69
2021/12/21 12:20:26;;;;;;;10.00;6.97;;;;;;;;;;4967110;28;20397;-71
2021/12/21 12:23:04;;;;;;;10.75;7.00;;;;;;;;;;4973491;28;20419;-69
2021/12/21 12:25:33;;;;;;;13.38;7.25;;;;;;;;;;4973253;28;20380;-72
2021/12/21 12:28:02;;;;;;;12.45;6.55;;;;;;;;;;4973329;28;20385;-73
2021/12/21 12:30:35;;;;;;;9.90;6.38;;;;;;;;;;4960793;28;20435;-73
2021/12/21 12:33:05;;;;;;;9.48;5.90;;;;;;;;;;4973208;28;20412;-74
2021/12/21 12:35:34;;;;;;;11.80;5.97;;;;;;;;;;4973373;28;20384;-61
2021/12/21 12:38:05;;;;;;;8.65;5.22;;;;;;;;;;4964612;28;20385;-60
2021/12/21 12:40:36;;;;;;;11.57;5.57;;;;;;;;;;4948440;28;20395;-71
2021/12/21 12:43:07;;;;;;;8.40;5.50;;;;;;;;;;4972462;28;20381;-71
2021/12/21 12:45:38;;;;;;;9.85;5.35;;;;;;;;;;4972569;28;20380;-70
2021/12/21 12:48:26;;;;;;;11.20;5.40;;;;;;;;;;4955206;28;20748;-70
2021/12/21 12:50:55;;;;;;;7.65;4.70;;;;;;;;;;4972898;28;20420;-69
2021/12/21 12:53:22;;;;;;;7.13;4.78;;;;;;;;;;4972961;28;20453;-69
2021/12/21 12:55:57;;;;;;;7.13;4.80;;;;;;;;;;4972944;28;20479;-71
2021/12/21 12:58:27;;;;;;;7.88;4.88;;;;;;;;;;4973098;28;20736;-70
2021/12/21 13:01:01;;;;;;;6.05;4.50;;;;;;;;;;4972878;28;20381;-71
2021/12/21 13:03:36;;;;;;;6.65;4.60;;;;;;;;;;4973121;28;20383;-71
2021/12/21 13:06:13;;;;;;;6.97;4.27;;;;;;;;;;4972715;28;20744;-75
2021/12/21 13:08:42;;;;;;;7.57;4.50;;;;;;;;;;4973066;28;20463;-74
2021/12/21 13:11:12;;;;;;;7.78;4.47;;;;;;;;;;4942546;28;20416;-71
2021/12/21 13:13:45;;;;;;;6.20;4.13;;;;;;;;;;4961499;28;20390;-69
2021/12/21 13:16:11;;;;;;;6.30;4.47;;;;;;;;;;4967687;28;20404;-68
2021/12/21 13:18:51;;;;;;;9.27;4.00;;;;;;;;;;4967849;28;20470;-69
2021/12/21 13:21:18;;;;;;;6.05;4.15;;;;;;;;;;4962111;28;20385;-69
2021/12/21 13:23:44;;;;;;;6.25;3.90;;;;;;;;;;4965711;28;20435;-67
2021/12/21 13:26:10;;;;;;;6.07;3.88;;;;;;;;;;4962707;28;20385;-70
2021/12/21 13:28:44;;;;;;;6.90;3.90;;;;;;;;;;4962529;28;20394;-67
2021/12/21 13:31:10;;;;;;;5.40;3.50;;;;;;;;;;4966916;28;20432;-70
2021/12/21 13:33:40;;;;;;;5.15;3.70;;;;;;;;;;4966180;28;20794;-68
2021/12/21 13:36:07;;;;;;;5.43;3.40;;;;;;;;;;4965139;28;20380;-68
2021/12/21 13:38:35;;;;;;;5.90;3.45;;;;;;;;;;4945194;28;20415;-70
2021/12/21 13:41:03;;;;;;;5.15;3.60;;;;;;;;;;4963637;28;20837;-70
2021/12/21 13:43:32;;;;;;;5.55;3.70;;;;;;;;;;4967463;28;20383;-68
2021/12/21 13:46:06;;;;;;;6.57;3.60;;;;;;;;;;4954089;28;20904;-69
2021/12/21 13:48:33;;;;;;;5.35;3.53;;;;;;;;;;4954132;28;20376;-69
2021/12/21 13:51:13;;;;;;;6.43;3.50;;;;;;;;;;4962481;28;20918;-70
2021/12/21 13:53:49;;;;;;;5.55;3.25;;;;;;;;;;4961267;28;20504;-70
2021/12/21 13:56:17;;;;;;;4.95;3.25;;;;;;;;;;4961918;28;20383;-67
2021/12/21 13:58:44;;;;;;;5.47;3.38;;;;;;;;;;4967459;28;20704;-69
2021/12/21 14:01:30;;;;;;;6.07;3.07;;;;;;;;;;4969626;28;20435;-68
2021/12/21 14:03:58;;;;;;;7.45;3.22;;;;;;;;;;4971969;28;20376;-65
2021/12/21 14:06:25;;;;;;;4.53;3.17;;;;;;;;;;4972027;28;20403;-64
2021/12/21 14:08:52;;;;;;;4.68;3.10;;;;;;;;;;4971236;28;20868;-67
2021/12/21 14:11:20;;;;;;;5.55;3.17;;;;;;;;;;4970989;28;20440;-65
2021/12/21 14:13:47;;;;;;;3.97;3.20;;;;;;;;;;4960017;28;20478;-68
2021/12/21 14:16:22;;;;;;;4.47;3.08;;;;;;;;;;4954237;28;20387;-65
2021/12/21 14:18:50;;;;;;;5.05;3.08;;;;;;;;;;4970516;28;20396;-51
2021/12/21 14:21:18;;;;;;;4.07;2.90;;;;;;;;;;4970182;28;20407;-62
2021/12/21 14:23:46;;;;;;;4.65;3.00;;;;;;;;;;4948639;28;20416;-62
2021/12/21 14:26:18;;;;;;;5.22;3.35;;;;;;;;;;4958254;28;20385;-59
2021/12/21 14:29:04;;;;;;;5.65;3.92;;;;;;;;;;4975262;28;20455;-62
2021/12/21 14:31:40;;;;;;;6.07;4.30;;;;;;;;;;4968288;28;20428;-62
2021/12/21 14:34:07;;;;;;;6.68;4.57;;;;;;;;;;4960633;28;20462;-66
2021/12/21 14:36:34;;;;;;;6.60;4.40;;;;;;;;;;4968624;28;20392;-69
2021/12/21 14:39:03;;;;;;;6.25;4.88;;;;;;;;;;4963488;28;20393;-69
2021/12/21 14:41:30;;;;;;;8.15;5.05;;;;;;;;;;4966544;28;20394;-60
2021/12/21 14:44:07;;;;;;;7.55;5.50;;;;;;;;;;4947698;28;20941;-63
2021/12/21 14:46:35;;;;;;;8.88;6.82;;;;;;;;;;4957579;28;20406;-58
2021/12/21 14:49:10;;;;;;;8.82;6.25;;;;;;;;;;4971852;28;20403;-57
2021/12/21 14:51:57;;;;;;;11.40;7.70;;;;;;;;;;4970530;28;20400;-55
2021/12/21 14:54:24;;;;;;;10.10;7.87;;;;;;;;;;4971870;28;20418;-59
2021/12/21 14:56:51;;;;;;;13.02;8.70;;;;;;;;;;4955355;28;20404;-58
2021/12/21 14:59:18;;;;;;;11.15;8.02;;;;;;;;;;4972313;28;20543;-56
2021/12/21 15:01:51;;;;;;;10.82;8.02;;;;;;;;;;4963727;28;20376;-57
2021/12/21 15:04:22;;;;;;;10.48;7.28;;;;;;;;;;4950936;28;20412;-58
2021/12/21 15:06:49;;;;;;;8.88;6.70;;;;;;;;;;4966917;28;20495;-68
2021/12/21 15:09:15;;;;;;;9.57;6.40;;;;;;;;;;4955915;28;20889;-68
2021/12/21 15:11:45;;;;;;;9.50;6.43;;;;;;;;;;4971252;28;20390;-60
2021/12/21 15:14:11;;;;;;;8.65;6.72;;;;;;;;;;4967925;28;20402;-60
2021/12/21 15:16:37;;;;;;;8.18;5.93;;;;;;;;;;4964371;28;20783;-63
2021/12/21 15:19:03;;;;;;;8.32;5.68;;;;;;;;;;4967976;28;20384;-63
2021/12/21 15:21:30;;;;;;;8.20;5.70;;;;;;;;;;4974289;28;20381;-65
2021/12/21 15:24:00;;;;;;;8.52;6.30;;;;;;;;;;4970682;28;20427;-62
2021/12/21 15:26:26;;;;;;;9.95;6.00;;;;;;;;;;4946348;28;20411;-61
2021/12/21 15:28:52;;;;;;;9.60;6.47;;;;;;;;;;4969205;28;20389;-63
2021/12/21 15:31:19;;;;;;;12.48;7.97;;;;;;;;;;4961347;28;20444;-54
2021/12/21 15:33:45;;;;;;;13.32;7.40;;;;;;;;;;4974329;28;20387;-67
2021/12/21 15:36:12;;;;;;;10.88;7.45;;;;;;;;;;4973151;28;20388;-65
2021/12/21 15:38:38;;;;;;;11.32;6.97;;;;;;;;;;4956743;28;20420;-66
2021/12/21 15:41:05;;;;;;;11.98;7.22;;;;;;;;;;4972869;28;20467;-67
2021/12/21 15:43:36;;;;;;;10.23;6.53;;;;;;;;;;4956904;28;20393;-67
2021/12/21 15:46:02;;;;;;;12.00;6.60;;;;;;;;;;4956051;28;20463;-67
2021/12/21 15:48:28;;;;;;;10.85;7.10;;;;;;;;;;4955083;28;20388;-66
2021/12/21 15:50:55;;;;;;;10.15;7.00;;;;;;;;;;4972696;28;20963;-66
2021/12/21 15:53:25;;;;;;;11.15;7.20;;;;;;;;;;4973812;28;20768;-66
2021/12/21 15:55:51;;;;;;;10.30;7.47;;;;;;;;;;4955905;28;20400;-67
2021/12/21 15:58:20;;;;;;;9.88;7.30;;;;;;;;;;4973718;28;20435;-67
2021/12/21 16:00:46;;;;;;;12.13;7.70;;;;;;;;;;4956310;28;20411;-67
2021/12/21 16:03:13;;;;;;;11.30;7.10;;;;;;;;;;4974410;28;20384;-67
2021/12/21 16:05:39;;;;;;;10.82;7.85;;;;;;;;;;4973786;28;20404;-67
2021/12/21 16:08:05;;;;;;;9.68;7.63;;;;;;;;;;4973777;28;20372;-67
2021/12/21 16:10:32;;;;;;;10.93;7.53;;;;;;;;;;4956621;28;20745;-66
2021/12/21 16:12:58;;;;;;;10.93;7.90;;;;;;;;;;4950991;29;20405;-66
2021/12/21 16:15:24;;;;;;;10.55;7.47;;;;;;;;;;4969868;28;20418;-66
2021/12/21 16:17:52;;;;;;;11.55;7.90;;;;;;;;;;4973863;28;20683;-66
2021/12/21 16:20:18;;;;;;;11.18;7.78;;;;;;;;;;4974019;28;20471;-67
2021/12/21 16:22:45;;;;;;;10.00;7.65;;;;;;;;;;4973248;28;20499;-67
2021/12/21 16:25:13;;;;;;;10.93;7.63;;;;;;;;;;4956428;28;20427;-67
2021/12/21 16:27:39;;;;;;;9.80;7.57;;;;;;;;;;4955887;28;20443;-67
2021/12/21 16:30:29;;;;;;;10.35;7.20;;;;;;;;;;4978443;28;20887;-67
2021/12/21 16:32:55;;;;;;;10.75;7.50;;;;;;;;;;4959201;28;20405;-66
2021/12/21 16:35:21;;;;;;;10.23;7.10;;;;;;;;;;4972445;28;20865;-67
2021/12/21 16:37:47;;;;;;;11.77;7.50;;;;;;;;;;4973531;28;20380;-67
2021/12/21 16:40:13;;;;;;;9.50;7.00;;;;;;;;;;4961530;28;21009;-67
2021/12/21 16:42:40;;;;;;;10.55;7.18;;;;;;;;;;4971986;28;20392;-67
2021/12/21 16:45:07;;;;;;;11.00;7.20;;;;;;;;;;4955891;28;20474;-67
2021/12/21 16:47:33;;;;;;;10.83;7.20;;;;;;;;;;4972852;28;20423;-67
2021/12/21 16:49:59;;;;;;;10.32;7.07;;;;;;;;;;4972895;28;20444;-66
2021/12/21 16:52:25;;;;;;;8.73;6.57;;;;;;;;;;4973149;28;20400;-67
2021/12/21 16:54:51;;;;;;;10.48;6.75;;;;;;;;;;4955912;28;20385;-67
2021/12/21 16:57:17;;;;;;;10.70;6.70;;;;;;;;;;4972771;28;20381;-67
2021/12/21 16:59:46;;;;;;;9.10;6.03;;;;;;;;;;4973042;28;20411;-67
2021/12/21 17:02:13;;;;;;;8.43;6.47;;;;;;;;;;4955373;28;20474;-66
2021/12/21 17:04:39;;;;;;;8.63;6.40;;;;;;;;;;4955533;28;20519;-67
2021/12/21 17:07:05;;;;;;;9.57;6.70;;;;;;;;;;4972648;28;20388;-66
2021/12/21 17:09:31;;;;;;;8.27;6.10;;;;;;;;;;4972268;28;20388;-67
2021/12/21 17:11:57;;;;;;;9.15;6.45;;;;;;;;;;4955739;28;20753;-67
2021/12/21 17:14:26;;;;;;;9.18;6.25;;;;;;;;;;4944415;28;20396;-67
2021/12/21 17:16:54;;;;;;;9.80;6.63;;;;;;;;;;4972611;28;20446;-68
2021/12/21 17:19:20;;;;;;;9.30;6.40;;;;;;;;;;4954411;28;20396;-67
2021/12/21 17:21:46;;;;;;;10.93;6.73;;;;;;;;;;4954557;28;20395;-68
2021/12/21 17:24:13;;;;;;;11.65;7.30;;;;;;;;;;4955203;28;20920;-68
2021/12/21 17:26:39;;;;;;;10.43;7.45;;;;;;;;;;4955279;28;20415;-68
2021/12/21 17:29:05;;;;;;;9.60;6.95;;;;;;;;;;4972887;28;20375;-68
2021/12/21 17:31:31;;;;;;;10.60;7.40;;;;;;;;;;4976546;28;20416;-69
2021/12/21 17:34:00;;;;;;;10.05;7.22;;;;;;;;;;4953656;28;20399;-68
2021/12/21 17:36:27;;;;;;;9.73;7.07;;;;;;;;;;4971537;28;20384;-67
2021/12/21 17:38:54;;;;;;;11.27;7.63;;;;;;;;;;4955126;28;21032;-67
2021/12/21 17:41:22;;;;;;;10.80;7.40;;;;;;;;;;4972440;28;20372;-67
2021/12/21 17:43:48;;;;;;;9.45;7.60;;;;;;;;;;4954906;28;20384;-67
2021/12/21 17:46:15;;;;;;;13.38;7.97;;;;;;;;;;4972389;28;20498;-67
2021/12/21 17:48:41;;;;;;;12.60;8.45;;;;;;;;;;4954988;28;20384;-67
2021/12/21 17:51:08;;;;;;;10.45;8.35;;;;;;;;;;4954662;28;20641;-67
2021/12/21 17:53:34;;;;;;;11.20;8.47;;;;;;;;;;4971684;28;20396;-67
2021/12/21 17:56:01;;;;;;;11.70;8.43;;;;;;;;;;4970957;28;20400;-67
2021/12/21 17:58:27;;;;;;;12.38;8.48;;;;;;;;;;4955134;28;20439;-66
2021/12/21 18:00:53;;;;;;;11.15;8.75;;;;;;;;;;4975865;28;20387;-67
2021/12/21 18:03:19;;;;;;;12.57;8.98;;;;;;;;;;4975815;28;20392;-66
2021/12/21 18:08:49;;;;;;;14.77;9.48;;;;;;;;;;4976380;28;20411;-66
2021/12/21 18:11:15;;;;;;;12.38;9.10;;;;;;;;;;4976205;28;20416;-66
2021/12/21 18:13:42;;;;;;;12.57;9.77;;;;;;;;;;4947555;28;20497;-66
2021/12/21 18:16:08;;;;;;;13.52;9.85;;;;;;;;;;4976218;28;20405;-66
2021/12/21 18:18:34;;;;;;;14.20;10.47;;;;;;;;;;4976082;28;20427;-66
2021/12/21 18:21:00;;;;;;;14.02;10.52;;;;;;;;;;4976200;28;20376;-67
2021/12/21 18:23:29;;;;;;;14.35;10.60;;;;;;;;;;4958073;28;20408;-66
2021/12/21 18:26:00;;;;;;;14.13;11.10;;;;;;;;;;4958221;28;20911;-65
2021/12/21 18:28:26;;;;;;;14.68;10.70;;;;;;;;;;4958406;28;20387;-68
2021/12/21 18:30:55;;;;;;;14.77;10.55;;;;;;;;;;4980079;28;20408;-66
2021/12/21 18:33:25;;;;;;;15.10;11.20;;;;;;;;;;4958143;28;20915;-65
2021/12/21 18:35:54;;;;;;;15.27;11.18;;;;;;;;;;4957831;28;20385;-65
2021/12/21 18:38:25;;;;;;;14.52;10.75;;;;;;;;;;4974069;28;20384;-68
2021/12/21 18:40:52;;;;;;;14.77;11.65;;;;;;;;;;4955447;28;20410;-60
2021/12/21 18:43:18;;;;;;;15.10;11.53;;;;;;;;;;4974522;28;20372;-56
2021/12/21 18:45:44;;;;;;;17.73;11.85;;;;;;;;;;4973860;28;20384;-53
2021/12/21 18:48:11;;;;;;;16.45;11.77;;;;;;;;;;4956477;28;20892;-49
2021/12/21 18:50:37;;;;;;;15.40;11.38;;;;;;;;;;4956499;28;20497;-61
2021/12/21 18:53:07;;;;;;;16.70;11.85;;;;;;;;;;4973744;28;20379;-61
2021/12/21 18:55:36;;;;;;;17.58;12.30;;;;;;;;;;4956042;28;20396;-60
2021/12/21 18:58:05;;;;;;;16.23;11.73;;;;;;;;;;4971262;28;20412;-60
2021/12/21 19:00:33;;;;;;;16.40;12.03;;;;;;;;;;4975340;28;20364;-60
2021/12/21 19:03:06;;;;;;;15.93;12.38;;;;;;;;;;4945093;28;20395;-60
2021/12/21 19:05:34;;;;;;;15.68;12.15;;;;;;;;;;4967897;28;20396;-58
2021/12/21 19:08:00;;;;;;;16.60;12.60;;;;;;;;;;4957980;28;20494;-59
2021/12/21 19:10:26;;;;;;;18.30;12.80;;;;;;;;;;4969327;28;20417;-59
2021/12/21 19:12:53;;;;;;;16.33;12.85;;;;;;;;;;4959973;28;20418;-56
2021/12/21 19:15:19;;;;;;;17.63;12.52;;;;;;;;;;4974982;28;20947;-59
2021/12/21 19:17:48;;;;;;;17.63;13.20;;;;;;;;;;4957765;28;20397;-60
2021/12/21 19:20:20;;;;;;;17.33;12.70;;;;;;;;;;4959788;28;20831;-60
2021/12/21 19:22:47;;;;;;;17.08;12.98;;;;;;;;;;4975000;28;20439;-60
2021/12/21 19:25:13;;;;;;;19.15;13.38;;;;;;;;;;4957585;28;20391;-61
2021/12/21 19:27:40;;;;;;;15.95;12.75;;;;;;;;;;4957220;28;20408;-60
2021/12/21 19:30:08;;;;;;;14.85;12.15;;;;;;;;;;4972452;28;20435;-60
2021/12/21 19:32:34;;;;;;;17.63;12.80;;;;;;;;;;4951627;28;20406;-60
2021/12/21 19:35:02;;;;;;;17.10;12.65;;;;;;;;;;4965897;28;20393;-60
2021/12/21 19:37:28;;;;;;;17.83;13.03;;;;;;;;;;4950137;28;20451;-60
2021/12/21 19:39:54;;;;;;;18.02;13.13;;;;;;;;;;4948822;28;20416;-60
2021/12/21 19:42:20;;;;;;;18.77;13.43;;;;;;;;;;4973632;28;20388;-61
2021/12/21 19:44:46;;;;;;;17.83;13.33;;;;;;;;;;4955870;28;20549;-60
2021/12/21 19:47:13;;;;;;;17.77;13.02;;;;;;;;;;4973250;28;20383;-61
2021/12/21 19:49:39;;;;;;;19.03;13.43;;;;;;;;;;4955670;28;20386;-60
2021/12/21 19:52:07;;;;;;;17.17;13.30;;;;;;;;;;4957114;28;20446;-60
2021/12/21 19:54:36;;;;;;;17.75;12.73;;;;;;;;;;4954604;28;21017;-60
2021/12/21 19:57:03;;;;;;;16.95;13.02;;;;;;;;;;4955135;28;20418;-59
2021/12/21 19:59:33;;;;;;;18.30;13.20;;;;;;;;;;4974535;28;20468;-57
2021/12/21 20:01:59;;;;;;;20.48;13.45;;;;;;;;;;4954144;28;20427;-59
2021/12/21 20:04:29;;;;;;;17.88;13.15;;;;;;;;;;4983711;28;20380;-59
2021/12/21 20:07:01;;;;;;;16.95;13.18;;;;;;;;;;4956590;28;20389;-60
2021/12/21 20:09:30;;;;;;;17.80;12.70;;;;;;;;;;4960386;28;20912;-60
2021/12/21 20:12:17;;;;;;;17.40;13.07;;;;;;;;;;4957731;28;20400;-61
2021/12/21 20:14:44;;;;;;;16.92;12.68;;;;;;;;;;4973345;28;20384;-60
2021/12/21 21:35:35;;;;;;;16.17;10.40;;;;;;;;;;5572936;23;20457;-62
2021/12/21 21:38:01;;;;;;;17.20;10.10;;;;;;;;;;4951900;28;20419;-63
2021/12/21 21:40:28;;;;;;;14.15;9.77;;;;;;;;;;4967932;28;20400;-54
